sensor_id;sensor_type;location;lat;lon;timestamp;P1;durP1;ratioP1;P2;durP2;ratioP2
80536;SDS011;69867;47.074;15.404;2023-07-13T00:01:56;2.85;;;0.80;;
80536;SDS011;69867;47.074;15.404;2023-07-13T00:04:22;3.85;;;0.90;;
80536;SDS011;69867;47.074;15.404;2023-07-13T00:06:48;4.57;;;0.95;;
80536;SDS011;69867;47.074;15.404;2023-07-13T00:09:14;5.40;;;1.20;;
80536;SDS011;69867;47.074;15.404;2023-07-13T00:11:41;3.45;;;1.08;;
80536;SDS011;69867;47.074;15.404;2023-07-13T00:14:06;4.28;;;0.90;;
80536;SDS011;69867;47.074;15.404;2023-07-13T00:16:33;3.65;;;0.93;;
80536;SDS011;69867;47.074;15.404;2023-07-13T00:18:59;3.10;;;0.60;;
80536;SDS011;69867;47.074;15.404;2023-07-13T00:21:25;3.53;;;0.70;;
80536;SDS011;69867;47.074;15.404;2023-07-13T00:23:51;3.05;;;0.80;;
80536;SDS011;69867;47.074;15.404;2023-07-13T00:26:16;2.47;;;0.60;;
80536;SDS011;69867;47.074;15.404;2023-07-13T00:28:42;2.80;;;0.60;;
80536;SDS011;69867;47.074;15.404;2023-07-13T00:31:08;2.33;;;0.60;;
80536;SDS011;69867;47.074;15.404;2023-07-13T00:33:35;4.32;;;1.05;;
80536;SDS011;69867;47.074;15.404;2023-07-13T00:36:00;1.98;;;0.50;;
80536;SDS011;69867;47.074;15.404;2023-07-13T00:38:25;2.83;;;0.70;;
80536;SDS011;69867;47.074;15.404;2023-07-13T00:40:51;2.45;;;0.82;;
80536;SDS011;69867;47.074;15.404;2023-07-13T00:43:17;3.13;;;0.80;;
80536;SDS011;69867;47.074;15.404;2023-07-13T00:48:11;2.45;;;0.60;;
80536;SDS011;69867;47.074;15.404;2023-07-13T00:50:40;3.70;;;1.30;;
80536;SDS011;69867;47.074;15.404;2023-07-13T00:53:07;2.85;;;0.98;;
80536;SDS011;69867;47.074;15.404;2023-07-13T00:55:33;5.70;;;1.15;;
80536;SDS011;69867;47.074;15.404;2023-07-13T00:57:59;4.15;;;0.90;;
80536;SDS011;69867;47.074;15.404;2023-07-13T01:00:24;2.88;;;0.85;;
80536;SDS011;69867;47.074;15.404;2023-07-13T01:02:50;3.90;;;0.77;;
80536;SDS011;69867;47.074;15.404;2023-07-13T01:05:17;2.70;;;0.80;;
80536;SDS011;69867;47.074;15.404;2023-07-13T01:07:44;2.38;;;0.52;;
80536;SDS011;69867;47.074;15.404;2023-07-13T01:13:01;3.95;;;0.77;;
80536;SDS011;69867;47.074;15.404;2023-07-13T01:15:39;3.10;;;0.70;;
80536;SDS011;69867;47.074;15.404;2023-07-13T01:18:09;2.97;;;0.60;;
80536;SDS011;69867;47.074;15.404;2023-07-13T01:20:37;2.70;;;0.90;;
80536;SDS011;69867;47.074;15.404;2023-07-13T01:23:04;2.58;;;0.88;;
80536;SDS011;69867;47.074;15.404;2023-07-13T01:25:34;3.60;;;0.98;;
80536;SDS011;69867;47.074;15.404;2023-07-13T01:28:02;3.05;;;0.88;;
80536;SDS011;69867;47.074;15.404;2023-07-13T01:30:28;3.08;;;1.00;;
80536;SDS011;69867;47.074;15.404;2023-07-13T01:32:54;4.00;;;1.10;;
80536;SDS011;69867;47.074;15.404;2023-07-13T01:35:19;4.28;;;1.05;;
80536;SDS011;69867;47.074;15.404;2023-07-13T01:37:45;3.33;;;0.98;;
80536;SDS011;69867;47.074;15.404;2023-07-13T01:40:10;3.28;;;0.95;;
80536;SDS011;69867;47.074;15.404;2023-07-13T01:42:37;2.95;;;1.05;;
80536;SDS011;69867;47.074;15.404;2023-07-13T01:45:03;3.95;;;0.82;;
80536;SDS011;69867;47.074;15.404;2023-07-13T01:47:29;2.83;;;0.90;;
80536;SDS011;69867;47.074;15.404;2023-07-13T01:49:54;5.22;;;1.00;;
80536;SDS011;69867;47.074;15.404;2023-07-13T01:52:20;3.67;;;1.55;;
80536;SDS011;69867;47.074;15.404;2023-07-13T01:54:45;2.83;;;1.20;;
80536;SDS011;69867;47.074;15.404;2023-07-13T01:57:10;4.05;;;1.23;;
80536;SDS011;69867;47.074;15.404;2023-07-13T01:59:35;2.80;;;1.30;;
80536;SDS011;69867;47.074;15.404;2023-07-13T02:02:01;5.03;;;1.60;;
80536;SDS011;69867;47.074;15.404;2023-07-13T02:04:26;4.93;;;1.70;;
80536;SDS011;69867;47.074;15.404;2023-07-13T02:06:51;3.28;;;1.27;;
80536;SDS011;69867;47.074;15.404;2023-07-13T02:09:17;5.95;;;2.42;;
80536;SDS011;69867;47.074;15.404;2023-07-13T02:11:42;4.15;;;1.30;;
80536;SDS011;69867;47.074;15.404;2023-07-13T02:14:07;3.03;;;1.10;;
80536;SDS011;69867;47.074;15.404;2023-07-13T02:16:33;3.63;;;1.20;;
80536;SDS011;69867;47.074;15.404;2023-07-13T02:18:58;4.82;;;1.20;;
80536;SDS011;69867;47.074;15.404;2023-07-13T02:21:24;2.83;;;0.90;;
80536;SDS011;69867;47.074;15.404;2023-07-13T02:23:49;2.38;;;0.85;;
80536;SDS011;69867;47.074;15.404;2023-07-13T02:26:15;4.03;;;1.30;;
80536;SDS011;69867;47.074;15.404;2023-07-13T02:28:41;4.10;;;1.00;;
80536;SDS011;69867;47.074;15.404;2023-07-13T02:31:10;3.03;;;0.95;;
80536;SDS011;69867;47.074;15.404;2023-07-13T02:33:38;3.83;;;1.40;;
80536;SDS011;69867;47.074;15.404;2023-07-13T02:36:04;3.72;;;1.55;;
80536;SDS011;69867;47.074;15.404;2023-07-13T02:38:30;6.45;;;1.50;;
80536;SDS011;69867;47.074;15.404;2023-07-13T02:40:55;5.18;;;1.73;;
80536;SDS011;69867;47.074;15.404;2023-07-13T02:43:21;5.38;;;1.98;;
80536;SDS011;69867;47.074;15.404;2023-07-13T02:45:46;6.22;;;2.10;;
80536;SDS011;69867;47.074;15.404;2023-07-13T02:48:14;5.40;;;2.63;;
80536;SDS011;69867;47.074;15.404;2023-07-13T02:50:39;5.78;;;2.72;;
80536;SDS011;69867;47.074;15.404;2023-07-13T02:53:04;4.68;;;2.28;;
80536;SDS011;69867;47.074;15.404;2023-07-13T02:55:30;9.27;;;2.85;;
80536;SDS011;69867;47.074;15.404;2023-07-13T02:57:55;4.43;;;2.20;;
80536;SDS011;69867;47.074;15.404;2023-07-13T03:00:20;5.80;;;2.10;;
80536;SDS011;69867;47.074;15.404;2023-07-13T03:02:46;4.15;;;1.50;;
80536;SDS011;69867;47.074;15.404;2023-07-13T03:05:11;6.60;;;1.38;;
80536;SDS011;69867;47.074;15.404;2023-07-13T03:07:36;5.18;;;1.63;;
80536;SDS011;69867;47.074;15.404;2023-07-13T03:10:02;4.35;;;1.50;;
80536;SDS011;69867;47.074;15.404;2023-07-13T03:12:27;4.68;;;1.77;;
80536;SDS011;69867;47.074;15.404;2023-07-13T03:14:52;4.53;;;1.98;;
80536;SDS011;69867;47.074;15.404;2023-07-13T03:17:18;7.63;;;2.33;;
80536;SDS011;69867;47.074;15.404;2023-07-13T03:19:43;4.85;;;2.13;;
80536;SDS011;69867;47.074;15.404;2023-07-13T03:22:09;4.20;;;2.15;;
80536;SDS011;69867;47.074;15.404;2023-07-13T03:24:34;4.85;;;2.00;;
80536;SDS011;69867;47.074;15.404;2023-07-13T03:27:03;4.13;;;1.65;;
80536;SDS011;69867;47.074;15.404;2023-07-13T03:29:29;3.22;;;1.35;;
80536;SDS011;69867;47.074;15.404;2023-07-13T03:31:55;4.43;;;1.52;;
80536;SDS011;69867;47.074;15.404;2023-07-13T03:34:20;5.30;;;1.92;;
80536;SDS011;69867;47.074;15.404;2023-07-13T03:36:45;4.05;;;1.73;;
80536;SDS011;69867;47.074;15.404;2023-07-13T03:39:11;3.63;;;1.75;;
80536;SDS011;69867;47.074;15.404;2023-07-13T03:41:36;4.53;;;2.17;;
80536;SDS011;69867;47.074;15.404;2023-07-13T03:44:02;5.13;;;2.20;;
80536;SDS011;69867;47.074;15.404;2023-07-13T03:46:27;4.60;;;2.10;;
80536;SDS011;69867;47.074;15.404;2023-07-13T03:48:53;5.75;;;2.30;;
80536;SDS011;69867;47.074;15.404;2023-07-13T03:51:19;4.25;;;2.00;;
80536;SDS011;69867;47.074;15.404;2023-07-13T03:53:45;4.05;;;1.80;;
80536;SDS011;69867;47.074;15.404;2023-07-13T03:56:12;4.47;;;2.03;;
80536;SDS011;69867;47.074;15.404;2023-07-13T03:58:38;5.90;;;2.40;;
80536;SDS011;69867;47.074;15.404;2023-07-13T04:01:05;4.60;;;1.98;;
80536;SDS011;69867;47.074;15.404;2023-07-13T04:03:33;5.68;;;1.70;;
80536;SDS011;69867;47.074;15.404;2023-07-13T04:06:01;5.03;;;2.00;;
80536;SDS011;69867;47.074;15.404;2023-07-13T04:08:32;6.05;;;2.15;;
80536;SDS011;69867;47.074;15.404;2023-07-13T04:13:24;4.40;;;1.83;;
80536;SDS011;69867;47.074;15.404;2023-07-13T04:15:50;4.90;;;2.03;;
80536;SDS011;69867;47.074;15.404;2023-07-13T04:18:17;4.88;;;1.75;;
80536;SDS011;69867;47.074;15.404;2023-07-13T04:20:42;4.38;;;1.52;;
80536;SDS011;69867;47.074;15.404;2023-07-13T04:23:08;4.90;;;1.90;;
80536;SDS011;69867;47.074;15.404;2023-07-13T04:25:33;4.38;;;1.58;;
80536;SDS011;69867;47.074;15.404;2023-07-13T04:27:59;4.65;;;1.80;;
80536;SDS011;69867;47.074;15.404;2023-07-13T04:30:24;5.10;;;2.00;;
80536;SDS011;69867;47.074;15.404;2023-07-13T04:32:50;5.90;;;1.90;;
80536;SDS011;69867;47.074;15.404;2023-07-13T04:35:17;4.25;;;1.60;;
80536;SDS011;69867;47.074;15.404;2023-07-13T04:37:43;6.28;;;1.92;;
80536;SDS011;69867;47.074;15.404;2023-07-13T04:40:08;3.67;;;1.42;;
80536;SDS011;69867;47.074;15.404;2023-07-13T04:42:33;3.45;;;1.65;;
80536;SDS011;69867;47.074;15.404;2023-07-13T04:44:59;4.20;;;1.60;;
80536;SDS011;69867;47.074;15.404;2023-07-13T04:47:24;4.10;;;1.65;;
80536;SDS011;69867;47.074;15.404;2023-07-13T04:49:49;3.83;;;1.60;;
80536;SDS011;69867;47.074;15.404;2023-07-13T04:52:15;2.83;;;1.40;;
80536;SDS011;69867;47.074;15.404;2023-07-13T04:54:40;4.18;;;1.73;;
80536;SDS011;69867;47.074;15.404;2023-07-13T04:57:05;3.35;;;1.50;;
80536;SDS011;69867;47.074;15.404;2023-07-13T04:59:32;2.90;;;1.40;;
80536;SDS011;69867;47.074;15.404;2023-07-13T05:01:57;5.63;;;1.60;;
80536;SDS011;69867;47.074;15.404;2023-07-13T05:04:23;6.07;;;1.80;;
80536;SDS011;69867;47.074;15.404;2023-07-13T05:06:48;3.40;;;1.60;;
80536;SDS011;69867;47.074;15.404;2023-07-13T05:09:13;2.55;;;1.17;;
80536;SDS011;69867;47.074;15.404;2023-07-13T05:11:39;3.60;;;1.73;;
80536;SDS011;69867;47.074;15.404;2023-07-13T05:14:04;2.72;;;1.25;;
80536;SDS011;69867;47.074;15.404;2023-07-13T05:16:29;5.05;;;1.70;;
80536;SDS011;69867;47.074;15.404;2023-07-13T05:18:55;4.45;;;1.55;;
80536;SDS011;69867;47.074;15.404;2023-07-13T05:21:20;3.92;;;1.23;;
80536;SDS011;69867;47.074;15.404;2023-07-13T05:23:45;3.90;;;1.30;;
80536;SDS011;69867;47.074;15.404;2023-07-13T05:26:12;3.78;;;1.30;;
80536;SDS011;69867;47.074;15.404;2023-07-13T05:28:38;4.60;;;1.20;;
80536;SDS011;69867;47.074;15.404;2023-07-13T05:31:03;3.53;;;1.25;;
80536;SDS011;69867;47.074;15.404;2023-07-13T05:33:29;3.75;;;1.25;;
80536;SDS011;69867;47.074;15.404;2023-07-13T05:35:55;3.80;;;1.27;;
80536;SDS011;69867;47.074;15.404;2023-07-13T05:38:20;5.22;;;1.35;;
80536;SDS011;69867;47.074;15.404;2023-07-13T05:40:46;3.08;;;1.10;;
80536;SDS011;69867;47.074;15.404;2023-07-13T05:43:12;4.75;;;1.63;;
80536;SDS011;69867;47.074;15.404;2023-07-13T05:45:38;3.70;;;1.40;;
80536;SDS011;69867;47.074;15.404;2023-07-13T05:48:04;3.75;;;1.10;;
80536;SDS011;69867;47.074;15.404;2023-07-13T05:50:29;4.95;;;1.27;;
80536;SDS011;69867;47.074;15.404;2023-07-13T05:52:54;4.65;;;1.27;;
80536;SDS011;69867;47.074;15.404;2023-07-13T05:55:20;3.15;;;1.00;;
80536;SDS011;69867;47.074;15.404;2023-07-13T05:57:45;3.30;;;1.40;;
80536;SDS011;69867;47.074;15.404;2023-07-13T06:00:11;5.15;;;1.30;;
80536;SDS011;69867;47.074;15.404;2023-07-13T06:02:37;3.90;;;1.42;;
80536;SDS011;69867;47.074;15.404;2023-07-13T06:05:02;4.40;;;1.70;;
80536;SDS011;69867;47.074;15.404;2023-07-13T06:07:28;3.88;;;1.70;;
80536;SDS011;69867;47.074;15.404;2023-07-13T06:09:53;7.97;;;3.70;;
80536;SDS011;69867;47.074;15.404;2023-07-13T06:12:19;6.95;;;3.55;;
80536;SDS011;69867;47.074;15.404;2023-07-13T06:14:44;3.63;;;1.63;;
80536;SDS011;69867;47.074;15.404;2023-07-13T06:17:09;3.08;;;1.10;;
80536;SDS011;69867;47.074;15.404;2023-07-13T06:19:35;4.38;;;1.25;;
80536;SDS011;69867;47.074;15.404;2023-07-13T06:22:00;2.28;;;0.80;;
80536;SDS011;69867;47.074;15.404;2023-07-13T06:24:26;2.70;;;0.90;;
80536;SDS011;69867;47.074;15.404;2023-07-13T06:26:51;2.70;;;0.98;;
80536;SDS011;69867;47.074;15.404;2023-07-13T06:29:17;3.05;;;1.02;;
80536;SDS011;69867;47.074;15.404;2023-07-13T06:31:42;2.08;;;0.90;;
80536;SDS011;69867;47.074;15.404;2023-07-13T06:34:07;3.75;;;0.98;;
80536;SDS011;69867;47.074;15.404;2023-07-13T06:36:33;1.90;;;1.00;;
80536;SDS011;69867;47.074;15.404;2023-07-13T06:38:58;2.13;;;0.73;;
80536;SDS011;69867;47.074;15.404;2023-07-13T06:41:24;2.55;;;0.70;;
80536;SDS011;69867;47.074;15.404;2023-07-13T06:43:49;2.63;;;0.98;;
80536;SDS011;69867;47.074;15.404;2023-07-13T06:46:14;2.53;;;0.93;;
80536;SDS011;69867;47.074;15.404;2023-07-13T06:48:39;2.42;;;0.90;;
80536;SDS011;69867;47.074;15.404;2023-07-13T06:51:05;3.60;;;1.00;;
80536;SDS011;69867;47.074;15.404;2023-07-13T06:53:30;3.05;;;1.13;;
80536;SDS011;69867;47.074;15.404;2023-07-13T06:55:56;3.20;;;0.80;;
80536;SDS011;69867;47.074;15.404;2023-07-13T06:58:21;3.22;;;0.88;;
80536;SDS011;69867;47.074;15.404;2023-07-13T07:00:49;2.47;;;0.75;;
80536;SDS011;69867;47.074;15.404;2023-07-13T07:03:16;2.40;;;0.90;;
80536;SDS011;69867;47.074;15.404;2023-07-13T07:05:41;3.08;;;0.90;;
80536;SDS011;69867;47.074;15.404;2023-07-13T07:08:06;2.28;;;0.82;;
80536;SDS011;69867;47.074;15.404;2023-07-13T07:10:32;2.28;;;0.77;;
80536;SDS011;69867;47.074;15.404;2023-07-13T07:12:58;2.70;;;0.95;;
80536;SDS011;69867;47.074;15.404;2023-07-13T07:15:24;2.85;;;0.90;;
80536;SDS011;69867;47.074;15.404;2023-07-13T07:17:50;2.30;;;1.00;;
80536;SDS011;69867;47.074;15.404;2023-07-13T07:20:15;3.22;;;1.42;;
80536;SDS011;69867;47.074;15.404;2023-07-13T07:22:40;4.07;;;1.10;;
80536;SDS011;69867;47.074;15.404;2023-07-13T07:25:06;2.58;;;0.80;;
80536;SDS011;69867;47.074;15.404;2023-07-13T07:27:32;2.60;;;1.10;;
80536;SDS011;69867;47.074;15.404;2023-07-13T07:29:57;4.72;;;0.90;;
80536;SDS011;69867;47.074;15.404;2023-07-13T07:32:23;2.33;;;0.80;;
80536;SDS011;69867;47.074;15.404;2023-07-13T07:34:48;1.90;;;0.75;;
80536;SDS011;69867;47.074;15.404;2023-07-13T07:37:14;3.50;;;1.10;;
80536;SDS011;69867;47.074;15.404;2023-07-13T07:39:39;3.38;;;1.38;;
80536;SDS011;69867;47.074;15.404;2023-07-13T07:42:05;2.88;;;0.77;;
80536;SDS011;69867;47.074;15.404;2023-07-13T07:44:31;2.85;;;0.90;;
80536;SDS011;69867;47.074;15.404;2023-07-13T07:46:57;3.17;;;0.88;;
80536;SDS011;69867;47.074;15.404;2023-07-13T07:49:23;2.65;;;1.00;;
80536;SDS011;69867;47.074;15.404;2023-07-13T07:51:48;2.75;;;0.90;;
80536;SDS011;69867;47.074;15.404;2023-07-13T07:54:14;2.72;;;0.85;;
80536;SDS011;69867;47.074;15.404;2023-07-13T07:56:39;2.35;;;0.80;;
80536;SDS011;69867;47.074;15.404;2023-07-13T07:59:04;4.72;;;1.00;;
80536;SDS011;69867;47.074;15.404;2023-07-13T08:01:30;2.40;;;0.63;;
80536;SDS011;69867;47.074;15.404;2023-07-13T08:03:55;3.13;;;0.85;;
80536;SDS011;69867;47.074;15.404;2023-07-13T08:06:20;2.97;;;0.77;;
80536;SDS011;69867;47.074;15.404;2023-07-13T08:08:46;2.47;;;0.70;;
80536;SDS011;69867;47.074;15.404;2023-07-13T08:11:11;2.28;;;0.80;;
80536;SDS011;69867;47.074;15.404;2023-07-13T08:13:37;2.22;;;0.80;;
80536;SDS011;69867;47.074;15.404;2023-07-13T08:16:04;3.03;;;0.70;;
80536;SDS011;69867;47.074;15.404;2023-07-13T08:18:31;2.65;;;0.80;;
80536;SDS011;69867;47.074;15.404;2023-07-13T08:20:56;2.58;;;0.63;;
80536;SDS011;69867;47.074;15.404;2023-07-13T08:23:22;2.42;;;0.60;;
80536;SDS011;69867;47.074;15.404;2023-07-13T08:25:51;3.25;;;0.90;;
80536;SDS011;69867;47.074;15.404;2023-07-13T08:28:18;1.95;;;0.60;;
80536;SDS011;69867;47.074;15.404;2023-07-13T08:30:44;3.63;;;0.70;;
80536;SDS011;69867;47.074;15.404;2023-07-13T08:33:10;2.85;;;0.60;;
80536;SDS011;69867;47.074;15.404;2023-07-13T08:35:35;2.50;;;0.73;;
80536;SDS011;69867;47.074;15.404;2023-07-13T08:38:00;2.65;;;0.70;;
80536;SDS011;69867;47.074;15.404;2023-07-13T08:40:26;2.55;;;0.77;;
80536;SDS011;69867;47.074;15.404;2023-07-13T08:42:57;2.28;;;1.05;;
80536;SDS011;69867;47.074;15.404;2023-07-13T08:48:09;2.08;;;0.80;;
80536;SDS011;69867;47.074;15.404;2023-07-13T08:50:43;3.63;;;0.80;;
80536;SDS011;69867;47.074;15.404;2023-07-13T08:53:39;2.85;;;0.73;;
80536;SDS011;69867;47.074;15.404;2023-07-13T08:56:11;2.83;;;0.80;;
80536;SDS011;69867;47.074;15.404;2023-07-13T08:58:42;2.03;;;0.80;;
80536;SDS011;69867;47.074;15.404;2023-07-13T09:06:45;2.75;;;0.82;;
80536;SDS011;69867;47.074;15.404;2023-07-13T09:12:49;3.15;;;0.80;;
80536;SDS011;69867;47.074;15.404;2023-07-13T09:15:04;1.88;;;0.65;;
80536;SDS011;69867;47.074;15.404;2023-07-13T09:17:44;4.70;;;0.80;;
80536;SDS011;69867;47.074;15.404;2023-07-13T09:20:23;2.65;;;0.73;;
80536;SDS011;69867;47.074;15.404;2023-07-13T09:22:53;2.40;;;1.25;;
80536;SDS011;69867;47.074;15.404;2023-07-13T09:25:24;2.67;;;0.80;;
80536;SDS011;69867;47.074;15.404;2023-07-13T09:27:55;2.13;;;0.65;;
80536;SDS011;69867;47.074;15.404;2023-07-13T09:30:27;2.35;;;1.00;;
80536;SDS011;69867;47.074;15.404;2023-07-13T09:32:58;4.95;;;2.10;;
80536;SDS011;69867;47.074;15.404;2023-07-13T09:35:25;2.50;;;0.85;;
80536;SDS011;69867;47.074;15.404;2023-07-13T09:37:52;9.65;;;4.35;;
80536;SDS011;69867;47.074;15.404;2023-07-13T09:40:24;3.45;;;1.20;;
80536;SDS011;69867;47.074;15.404;2023-07-13T09:42:55;5.95;;;2.90;;
80536;SDS011;69867;47.074;15.404;2023-07-13T09:45:26;2.95;;;0.80;;
80536;SDS011;69867;47.074;15.404;2023-07-13T09:47:58;3.63;;;1.08;;
80536;SDS011;69867;47.074;15.404;2023-07-13T09:50:24;3.22;;;1.20;;
80536;SDS011;69867;47.074;15.404;2023-07-13T09:52:50;2.33;;;0.80;;
80536;SDS011;69867;47.074;15.404;2023-07-13T09:57:53;1.90;;;0.70;;
80536;SDS011;69867;47.074;15.404;2023-07-13T10:00:23;2.60;;;1.30;;
80536;SDS011;69867;47.074;15.404;2023-07-13T10:05:41;2.08;;;0.88;;
80536;SDS011;69867;47.074;15.404;2023-07-13T10:08:18;3.70;;;1.20;;
80536;SDS011;69867;47.074;15.404;2023-07-13T10:10:57;2.97;;;1.42;;
80536;SDS011;69867;47.074;15.404;2023-07-13T10:13:27;2.33;;;1.02;;
80536;SDS011;69867;47.074;15.404;2023-07-13T10:15:56;2.05;;;1.10;;
80536;SDS011;69867;47.074;15.404;2023-07-13T10:18:24;3.22;;;1.02;;
80536;SDS011;69867;47.074;15.404;2023-07-13T10:20:53;2.53;;;0.77;;
80536;SDS011;69867;47.074;15.404;2023-07-13T10:23:23;3.28;;;1.20;;
80536;SDS011;69867;47.074;15.404;2023-07-13T10:25:54;2.38;;;0.90;;
80536;SDS011;69867;47.074;15.404;2023-07-13T10:28:28;3.42;;;1.10;;
80536;SDS011;69867;47.074;15.404;2023-07-13T10:30:56;2.78;;;0.90;;
80536;SDS011;69867;47.074;15.404;2023-07-13T10:33:25;3.67;;;1.40;;
80536;SDS011;69867;47.074;15.404;2023-07-13T10:35:51;2.47;;;1.30;;
80536;SDS011;69867;47.074;15.404;2023-07-13T10:38:22;2.53;;;1.10;;
80536;SDS011;69867;47.074;15.404;2023-07-13T10:40:58;2.28;;;0.82;;
80536;SDS011;69867;47.074;15.404;2023-07-13T10:46:19;2.05;;;0.90;;
80536;SDS011;69867;47.074;15.404;2023-07-13T10:48:48;2.42;;;1.00;;
80536;SDS011;69867;47.074;15.404;2023-07-13T10:51:19;5.00;;;1.55;;
80536;SDS011;69867;47.074;15.404;2023-07-13T10:53:45;3.42;;;1.23;;
80536;SDS011;69867;47.074;15.404;2023-07-13T11:01:40;2.45;;;0.98;;
80536;SDS011;69867;47.074;15.404;2023-07-13T11:04:13;4.95;;;1.10;;
80536;SDS011;69867;47.074;15.404;2023-07-13T11:06:39;3.25;;;1.40;;
80536;SDS011;69867;47.074;15.404;2023-07-13T11:11:46;3.60;;;1.25;;
80536;SDS011;69867;47.074;15.404;2023-07-13T11:19:51;3.30;;;1.48;;
80536;SDS011;69867;47.074;15.404;2023-07-13T11:22:16;3.42;;;1.48;;
80536;SDS011;69867;47.074;15.404;2023-07-13T11:24:51;3.58;;;1.60;;
80536;SDS011;69867;47.074;15.404;2023-07-13T11:27:45;5.10;;;2.70;;
80536;SDS011;69867;47.074;15.404;2023-07-13T11:38:40;3.67;;;1.55;;
80536;SDS011;69867;47.074;15.404;2023-07-13T11:43:40;4.00;;;1.70;;
80536;SDS011;69867;47.074;15.404;2023-07-13T11:46:12;6.03;;;1.52;;
80536;SDS011;69867;47.074;15.404;2023-07-13T11:48:44;7.15;;;1.88;;
80536;SDS011;69867;47.074;15.404;2023-07-13T11:51:14;5.40;;;1.50;;
80536;SDS011;69867;47.074;15.404;2023-07-13T11:53:48;3.70;;;1.38;;
80536;SDS011;69867;47.074;15.404;2023-07-13T11:56:15;3.85;;;1.45;;
80536;SDS011;69867;47.074;15.404;2023-07-13T11:58:41;4.20;;;1.73;;
80536;SDS011;69867;47.074;15.404;2023-07-13T12:01:09;3.45;;;2.00;;
80536;SDS011;69867;47.074;15.404;2023-07-13T12:04:01;3.05;;;1.10;;
80536;SDS011;69867;47.074;15.404;2023-07-13T12:06:29;3.95;;;1.25;;
80536;SDS011;69867;47.074;15.404;2023-07-13T12:08:59;3.38;;;1.20;;
80536;SDS011;69867;47.074;15.404;2023-07-13T12:11:26;3.05;;;1.40;;
80536;SDS011;69867;47.074;15.404;2023-07-13T12:13:52;3.25;;;1.20;;
80536;SDS011;69867;47.074;15.404;2023-07-13T12:16:25;5.78;;;1.70;;
80536;SDS011;69867;47.074;15.404;2023-07-13T12:18:53;5.28;;;1.42;;
80536;SDS011;69867;47.074;15.404;2023-07-13T12:21:20;2.90;;;1.38;;
80536;SDS011;69867;47.074;15.404;2023-07-13T12:23:51;2.47;;;1.00;;
80536;SDS011;69867;47.074;15.404;2023-07-13T12:26:17;3.55;;;1.27;;
80536;SDS011;69867;47.074;15.404;2023-07-13T12:28:51;3.03;;;1.20;;
80536;SDS011;69867;47.074;15.404;2023-07-13T12:31:25;4.15;;;1.45;;
80536;SDS011;69867;47.074;15.404;2023-07-13T12:33:57;4.07;;;1.77;;
80536;SDS011;69867;47.074;15.404;2023-07-13T12:36:48;3.95;;;1.75;;
80536;SDS011;69867;47.074;15.404;2023-07-13T12:39:34;3.45;;;1.30;;
80536;SDS011;69867;47.074;15.404;2023-07-13T12:42:19;4.00;;;1.27;;
80536;SDS011;69867;47.074;15.404;2023-07-13T12:47:22;3.10;;;1.33;;
80536;SDS011;69867;47.074;15.404;2023-07-13T12:49:49;3.45;;;1.45;;
80536;SDS011;69867;47.074;15.404;2023-07-13T12:52:21;4.80;;;1.48;;
80536;SDS011;69867;47.074;15.404;2023-07-13T12:54:58;3.17;;;1.20;;
80536;SDS011;69867;47.074;15.404;2023-07-13T12:57:28;2.83;;;1.30;;
80536;SDS011;69867;47.074;15.404;2023-07-13T12:59:54;3.00;;;1.20;;
80536;SDS011;69867;47.074;15.404;2023-07-13T13:02:26;4.38;;;1.73;;
80536;SDS011;69867;47.074;15.404;2023-07-13T13:04:55;3.60;;;1.55;;
80536;SDS011;69867;47.074;15.404;2023-07-13T13:07:21;3.60;;;1.30;;
80536;SDS011;69867;47.074;15.404;2023-07-13T13:09:48;2.97;;;1.30;;
80536;SDS011;69867;47.074;15.404;2023-07-13T13:12:13;3.75;;;1.35;;
80536;SDS011;69867;47.074;15.404;2023-07-13T13:14:39;4.28;;;1.45;;
80536;SDS011;69867;47.074;15.404;2023-07-13T13:17:04;4.80;;;1.67;;
80536;SDS011;69867;47.074;15.404;2023-07-13T13:19:45;4.30;;;1.30;;
80536;SDS011;69867;47.074;15.404;2023-07-13T13:22:11;3.60;;;1.55;;
80536;SDS011;69867;47.074;15.404;2023-07-13T13:24:36;2.65;;;1.23;;
80536;SDS011;69867;47.074;15.404;2023-07-13T13:27:02;3.28;;;1.30;;
80536;SDS011;69867;47.074;15.404;2023-07-13T13:29:28;3.70;;;1.40;;
80536;SDS011;69867;47.074;15.404;2023-07-13T13:31:54;3.55;;;1.58;;
80536;SDS011;69867;47.074;15.404;2023-07-13T13:34:20;4.75;;;1.30;;
80536;SDS011;69867;47.074;15.404;2023-07-13T13:36:47;3.42;;;1.80;;
80536;SDS011;69867;47.074;15.404;2023-07-13T13:39:18;2.80;;;1.10;;
80536;SDS011;69867;47.074;15.404;2023-07-13T13:41:45;4.65;;;1.33;;
80536;SDS011;69867;47.074;15.404;2023-07-13T13:44:12;2.80;;;1.10;;
80536;SDS011;69867;47.074;15.404;2023-07-13T13:46:40;4.07;;;1.38;;
80536;SDS011;69867;47.074;15.404;2023-07-13T13:49:07;4.70;;;1.20;;
80536;SDS011;69867;47.074;15.404;2023-07-13T13:51:38;3.90;;;1.15;;
80536;SDS011;69867;47.074;15.404;2023-07-13T13:54:04;3.90;;;1.40;;
80536;SDS011;69867;47.074;15.404;2023-07-13T13:56:34;6.63;;;2.03;;
80536;SDS011;69867;47.074;15.404;2023-07-13T13:58:59;3.38;;;1.30;;
80536;SDS011;69867;47.074;15.404;2023-07-13T14:01:25;2.67;;;1.13;;
80536;SDS011;69867;47.074;15.404;2023-07-13T14:03:50;3.40;;;1.20;;
80536;SDS011;69867;47.074;15.404;2023-07-13T14:06:16;4.18;;;1.25;;
80536;SDS011;69867;47.074;15.404;2023-07-13T14:08:41;2.47;;;1.05;;
80536;SDS011;69867;47.074;15.404;2023-07-13T14:11:11;3.60;;;1.25;;
80536;SDS011;69867;47.074;15.404;2023-07-13T14:14:02;2.88;;;0.90;;
80536;SDS011;69867;47.074;15.404;2023-07-13T14:16:27;4.65;;;1.30;;
80536;SDS011;69867;47.074;15.404;2023-07-13T14:18:54;3.70;;;1.15;;
80536;SDS011;69867;47.074;15.404;2023-07-13T14:21:21;2.65;;;1.10;;
80536;SDS011;69867;47.074;15.404;2023-07-13T14:23:47;3.72;;;1.63;;
80536;SDS011;69867;47.074;15.404;2023-07-13T14:26:15;3.55;;;1.40;;
80536;SDS011;69867;47.074;15.404;2023-07-13T14:28:43;3.42;;;1.17;;
80536;SDS011;69867;47.074;15.404;2023-07-13T14:31:11;4.55;;;1.45;;
80536;SDS011;69867;47.074;15.404;2023-07-13T14:33:37;3.35;;;1.15;;
80536;SDS011;69867;47.074;15.404;2023-07-13T14:36:05;3.72;;;1.35;;
80536;SDS011;69867;47.074;15.404;2023-07-13T14:38:38;3.70;;;1.25;;
80536;SDS011;69867;47.074;15.404;2023-07-13T14:41:04;3.47;;;1.27;;
80536;SDS011;69867;47.074;15.404;2023-07-13T14:43:29;4.35;;;1.20;;
80536;SDS011;69867;47.074;15.404;2023-07-13T14:45:54;3.05;;;1.00;;
80536;SDS011;69867;47.074;15.404;2023-07-13T14:48:21;3.20;;;1.35;;
80536;SDS011;69867;47.074;15.404;2023-07-13T14:50:50;2.63;;;1.23;;
80536;SDS011;69867;47.074;15.404;2023-07-13T14:53:19;3.78;;;1.30;;
80536;SDS011;69867;47.074;15.404;2023-07-13T14:55:45;2.88;;;1.17;;
80536;SDS011;69867;47.074;15.404;2023-07-13T14:58:10;3.08;;;1.20;;
80536;SDS011;69867;47.074;15.404;2023-07-13T15:00:35;3.42;;;1.50;;
80536;SDS011;69867;47.074;15.404;2023-07-13T15:03:01;3.42;;;1.20;;
80536;SDS011;69867;47.074;15.404;2023-07-13T15:05:29;3.20;;;1.20;;
80536;SDS011;69867;47.074;15.404;2023-07-13T15:07:57;2.80;;;1.00;;
80536;SDS011;69867;47.074;15.404;2023-07-13T15:10:24;3.13;;;1.40;;
80536;SDS011;69867;47.074;15.404;2023-07-13T15:12:52;2.75;;;1.00;;
80536;SDS011;69867;47.074;15.404;2023-07-13T15:15:17;2.92;;;1.00;;
80536;SDS011;69867;47.074;15.404;2023-07-13T15:17:44;3.88;;;1.20;;
80536;SDS011;69867;47.074;15.404;2023-07-13T15:20:23;3.85;;;1.50;;
80536;SDS011;69867;47.074;15.404;2023-07-13T15:22:51;3.45;;;1.35;;
80536;SDS011;69867;47.074;15.404;2023-07-13T15:25:17;3.80;;;1.58;;
80536;SDS011;69867;47.074;15.404;2023-07-13T15:27:45;3.28;;;1.20;;
80536;SDS011;69867;47.074;15.404;2023-07-13T15:30:11;3.10;;;1.23;;